Time;durP1;ratioP1;P1;durP2;ratioP2;P2;SDS_P1;SDS_P2;PMS_P1;PMS_P2;Temp;Humidity;BMP_temperature;BMP_pressure;BME280_temperature;BME280_humidity;BME280_pressure;Samples;Min_cycle;Max_cycle;Signal;HPM_P1;HPM_P2
2023/12/10 00:02:14;;;;;;;33.50;14.77;;;;;;;;;;5061899;28;20062;-66
2023/12/10 00:04:40;;;;;;;30.00;14.10;;;;;;;;;;5062755;28;20025;-66
2023/12/10 00:07:05;;;;;;;33.30;14.30;;;;;;;;;;5061603;28;20267;-66
2023/12/10 00:09:30;;;;;;;28.73;13.73;;;;;;;;;;5060036;28;20482;-65
2023/12/10 00:11:56;;;;;;;32.22;13.65;;;;;;;;;;5058670;28;20108;-66
2023/12/10 00:14:21;;;;;;;32.53;13.57;;;;;;;;;;5063437;28;20052;-66
2023/12/10 00:16:46;;;;;;;29.93;13.93;;;;;;;;;;5061179;28;20024;-66
2023/12/10 00:19:12;;;;;;;33.60;13.60;;;;;;;;;;5060690;28;20285;-67
2023/12/10 00:21:38;;;;;;;30.88;13.60;;;;;;;;;;5057170;28;20024;-67
2023/12/10 00:24:04;;;;;;;28.38;12.82;;;;;;;;;;5059550;28;20025;-66
2023/12/10 00:26:29;;;;;;;30.80;13.38;;;;;;;;;;5057939;28;20492;-67
2023/12/10 00:28:54;;;;;;;29.52;13.05;;;;;;;;;;5059338;28;20386;-66
2023/12/10 00:31:20;;;;;;;31.48;13.70;;;;;;;;;;5060120;28;20386;-66
2023/12/10 00:33:45;;;;;;;32.20;14.55;;;;;;;;;;5060719;28;20466;-66
2023/12/10 00:36:10;;;;;;;29.67;13.75;;;;;;;;;;5056060;28;20032;-70
2023/12/10 00:38:38;;;;;;;31.48;13.80;;;;;;;;;;5075465;28;20039;-70
2023/12/10 00:41:03;;;;;;;25.95;12.98;;;;;;;;;;5074556;28;20021;-70
2023/12/10 00:43:28;;;;;;;29.23;13.30;;;;;;;;;;5079865;28;20029;-70
2023/12/10 00:45:54;;;;;;;26.23;12.35;;;;;;;;;;5066137;28;20029;-70
2023/12/10 00:48:19;;;;;;;31.40;13.13;;;;;;;;;;5060557;28;20027;-71
2023/12/10 00:50:44;;;;;;;28.60;12.97;;;;;;;;;;5071387;28;20325;-70
2023/12/10 00:53:09;;;;;;;23.77;11.38;;;;;;;;;;5067072;28;20288;-70
2023/12/10 00:55:35;;;;;;;23.90;11.38;;;;;;;;;;5060785;28;20035;-71
2023/12/10 00:58:00;;;;;;;26.45;11.70;;;;;;;;;;5043909;28;20031;-70
2023/12/10 01:00:25;;;;;;;25.77;11.80;;;;;;;;;;5058576;28;20025;-71
2023/12/10 01:02:51;;;;;;;27.38;12.63;;;;;;;;;;5060344;28;20063;-70
2023/12/10 01:05:16;;;;;;;24.90;11.85;;;;;;;;;;5060125;28;20033;-69
2023/12/10 01:07:45;;;;;;;24.83;11.48;;;;;;;;;;5059557;28;20024;-69
2023/12/10 01:10:10;;;;;;;24.30;11.47;;;;;;;;;;5060645;28;20075;-71
2023/12/10 01:12:42;;;;;;;23.52;11.60;;;;;;;;;;5058293;28;20483;-70
2023/12/10 01:15:08;;;;;;;25.85;11.63;;;;;;;;;;5059923;28;20581;-71
2023/12/10 01:17:34;;;;;;;23.67;11.38;;;;;;;;;;5055432;28;20545;-72
2023/12/10 01:20:00;;;;;;;26.38;12.23;;;;;;;;;;5060382;28;20028;-70
2023/12/10 01:22:26;;;;;;;28.40;12.80;;;;;;;;;;5047193;28;20497;-70
2023/12/10 01:24:52;;;;;;;26.05;11.82;;;;;;;;;;5059754;28;20036;-66
2023/12/10 01:27:17;;;;;;;24.92;11.50;;;;;;;;;;5059083;28;20082;-67
2023/12/10 01:29:43;;;;;;;25.38;12.00;;;;;;;;;;5057166;28;20036;-67
2023/12/10 01:35:00;;;;;;;23.35;11.35;;;;;;;;;;5032858;28;20099;-67
2023/12/10 01:37:26;;;;;;;27.65;12.55;;;;;;;;;;5057852;28;20533;-67
2023/12/10 01:39:52;;;;;;;25.92;11.68;;;;;;;;;;5059351;28;20426;-68
2023/12/10 01:42:17;;;;;;;28.85;12.88;;;;;;;;;;5060338;28;20356;-67
2023/12/10 01:44:42;;;;;;;28.10;13.13;;;;;;;;;;5058001;28;20035;-67
2023/12/10 01:47:10;;;;;;;29.58;13.00;;;;;;;;;;5061352;28;20273;-69
2023/12/10 01:49:36;;;;;;;24.50;11.65;;;;;;;;;;5057194;28;20068;-66
2023/12/10 01:52:02;;;;;;;26.90;12.43;;;;;;;;;;5042562;28;20045;-67
2023/12/10 01:54:27;;;;;;;27.83;12.63;;;;;;;;;;5057437;28;20104;-66
2023/12/10 01:56:54;;;;;;;27.88;13.32;;;;;;;;;;5059029;28;20029;-65
2023/12/10 01:59:20;;;;;;;28.08;12.90;;;;;;;;;;5059648;28;20033;-66
2023/12/10 02:01:46;;;;;;;25.17;12.10;;;;;;;;;;5041925;28;20040;-66
2023/12/10 02:04:12;;;;;;;25.58;12.75;;;;;;;;;;5060362;28;20044;-66
2023/12/10 02:06:38;;;;;;;29.42;12.57;;;;;;;;;;5045351;28;20024;-69
2023/12/10 02:09:09;;;;;;;26.55;12.70;;;;;;;;;;5059528;28;20035;-66
2023/12/10 02:11:35;;;;;;;26.38;12.45;;;;;;;;;;5045010;28;20164;-66
2023/12/10 02:14:01;;;;;;;27.77;12.18;;;;;;;;;;5056970;28;20025;-65
2023/12/10 02:16:26;;;;;;;23.65;11.63;;;;;;;;;;5055182;28;20494;-66
2023/12/10 02:18:52;;;;;;;24.37;11.30;;;;;;;;;;5062175;28;20489;-68
2023/12/10 02:21:17;;;;;;;23.92;11.45;;;;;;;;;;5060829;28;20273;-69
2023/12/10 02:24:03;;;;;;;26.10;12.23;;;;;;;;;;5056984;28;20039;-66
2023/12/10 02:26:29;;;;;;;23.13;11.52;;;;;;;;;;5060508;28;20193;-66
2023/12/10 02:28:54;;;;;;;23.92;11.50;;;;;;;;;;5056621;28;20032;-66
2023/12/10 02:31:20;;;;;;;26.23;12.07;;;;;;;;;;5060188;28;20044;-67
2023/12/10 02:33:45;;;;;;;24.83;12.40;;;;;;;;;;5040401;28;20025;-66
2023/12/10 02:36:11;;;;;;;24.75;11.93;;;;;;;;;;5060180;28;20040;-67
2023/12/10 02:38:36;;;;;;;24.75;12.20;;;;;;;;;;5059045;28;20082;-67
2023/12/10 02:41:02;;;;;;;24.30;11.32;;;;;;;;;;5055839;28;20390;-66
2023/12/10 02:43:27;;;;;;;27.27;12.68;;;;;;;;;;5057612;28;20032;-67
2023/12/10 02:45:52;;;;;;;25.98;11.88;;;;;;;;;;5060675;28;20102;-68
2023/12/10 02:48:21;;;;;;;24.75;11.43;;;;;;;;;;5058321;28;20048;-67
2023/12/10 02:50:50;;;;;;;25.63;12.18;;;;;;;;;;5043311;28;20102;-66
2023/12/10 02:53:16;;;;;;;22.95;11.13;;;;;;;;;;5049258;28;20269;-68
2023/12/10 02:55:41;;;;;;;23.25;12.07;;;;;;;;;;5046151;28;20107;-69
2023/12/10 02:58:07;;;;;;;23.60;11.23;;;;;;;;;;5045023;28;20024;-67
2023/12/10 03:00:32;;;;;;;26.77;12.50;;;;;;;;;;5057440;28;20598;-68
2023/12/10 03:02:57;;;;;;;28.15;11.88;;;;;;;;;;5058966;28;20375;-68
2023/12/10 03:05:23;;;;;;;24.70;11.98;;;;;;;;;;5057731;28;20039;-66
2023/12/10 03:07:48;;;;;;;23.55;11.07;;;;;;;;;;5060776;28;20020;-67
2023/12/10 03:10:13;;;;;;;28.63;11.63;;;;;;;;;;5057052;28;20036;-67
2023/12/10 03:12:39;;;;;;;25.08;11.60;;;;;;;;;;5058317;28;20086;-66
2023/12/10 03:15:04;;;;;;;26.90;11.37;;;;;;;;;;5056363;28;20036;-67
2023/12/10 03:17:30;;;;;;;26.10;11.48;;;;;;;;;;5058082;28;20358;-66
2023/12/10 03:19:55;;;;;;;23.52;11.63;;;;;;;;;;5038463;28;20028;-66
2023/12/10 03:22:20;;;;;;;24.23;11.73;;;;;;;;;;5061637;28;20015;-67
2023/12/10 03:24:46;;;;;;;23.63;11.55;;;;;;;;;;5042296;28;20685;-68
2023/12/10 03:27:11;;;;;;;24.75;11.23;;;;;;;;;;5046239;28;20496;-67
2023/12/10 03:29:37;;;;;;;23.98;11.10;;;;;;;;;;5056615;28;20051;-66
2023/12/10 03:32:02;;;;;;;26.17;11.40;;;;;;;;;;5058223;28;20024;-68
2023/12/10 03:34:28;;;;;;;23.70;11.63;;;;;;;;;;5059252;28;20055;-66
2023/12/10 03:36:53;;;;;;;21.58;10.98;;;;;;;;;;5060942;28;20501;-66
2023/12/10 03:39:18;;;;;;;22.65;11.15;;;;;;;;;;5057567;28;20027;-67
2023/12/10 03:41:43;;;;;;;23.92;10.93;;;;;;;;;;5059581;28;20099;-66
2023/12/10 03:44:09;;;;;;;26.77;10.95;;;;;;;;;;5059396;28;20375;-67
2023/12/10 03:46:34;;;;;;;25.98;11.02;;;;;;;;;;5058430;28;20025;-68
2023/12/10 03:48:59;;;;;;;21.92;10.55;;;;;;;;;;5063084;28;20029;-68
2023/12/10 03:51:25;;;;;;;23.83;11.57;;;;;;;;;;5063391;28;20048;-67
2023/12/10 03:53:50;;;;;;;22.17;10.82;;;;;;;;;;5060520;28;20021;-68
2023/12/10 03:56:16;;;;;;;21.75;10.77;;;;;;;;;;5062482;28;20044;-67
2023/12/10 03:58:41;;;;;;;25.15;11.48;;;;;;;;;;5062352;28;20033;-67
2023/12/10 04:01:06;;;;;;;23.63;10.87;;;;;;;;;;5059535;28;20025;-68
2023/12/10 04:03:31;;;;;;;23.40;10.40;;;;;;;;;;5055524;28;20269;-68
2023/12/10 04:05:57;;;;;;;22.25;10.55;;;;;;;;;;5043456;28;20671;-68
2023/12/10 04:08:22;;;;;;;23.37;10.97;;;;;;;;;;5054615;28;20021;-66
2023/12/10 04:10:47;;;;;;;23.57;10.00;;;;;;;;;;5058245;28;20270;-66
2023/12/10 04:13:13;;;;;;;21.83;10.60;;;;;;;;;;5055651;28;20604;-68
2023/12/10 04:15:38;;;;;;;21.03;10.17;;;;;;;;;;5050927;28;20020;-67
2023/12/10 04:18:03;;;;;;;25.33;10.77;;;;;;;;;;5050660;28;20365;-68
2023/12/10 04:20:28;;;;;;;21.92;10.93;;;;;;;;;;5058907;28;20027;-67
2023/12/10 04:22:54;;;;;;;26.30;10.85;;;;;;;;;;5059186;28;20032;-67
2023/12/10 04:25:19;;;;;;;20.38;10.35;;;;;;;;;;5057797;28;20029;-66
2023/12/10 04:27:44;;;;;;;23.30;11.25;;;;;;;;;;5053434;28;20017;-69
2023/12/10 04:30:10;;;;;;;26.52;11.15;;;;;;;;;;5058893;28;20095;-69
2023/12/10 04:32:35;;;;;;;24.73;11.02;;;;;;;;;;5056056;28;20110;-70
2023/12/10 04:35:00;;;;;;;24.95;11.55;;;;;;;;;;5059423;28;20068;-69
2023/12/10 04:37:26;;;;;;;27.55;12.50;;;;;;;;;;5061254;28;20107;-69
2023/12/10 04:39:53;;;;;;;26.17;11.40;;;;;;;;;;5060835;28;20063;-71
2023/12/10 04:42:18;;;;;;;26.25;11.63;;;;;;;;;;5059129;28;20035;-70
2023/12/10 04:44:43;;;;;;;26.70;12.07;;;;;;;;;;5061854;28;20529;-69
2023/12/10 04:47:09;;;;;;;29.58;12.85;;;;;;;;;;5059931;28;20036;-70
2023/12/10 04:49:34;;;;;;;26.80;12.63;;;;;;;;;;5064793;28;20028;-69
2023/12/10 04:51:59;;;;;;;28.85;13.18;;;;;;;;;;5059382;28;20079;-69
2023/12/10 04:54:26;;;;;;;25.77;12.27;;;;;;;;;;5060526;28;20533;-69
2023/12/10 04:56:51;;;;;;;27.20;12.48;;;;;;;;;;5059096;28;20090;-69
2023/12/10 04:59:16;;;;;;;25.88;11.48;;;;;;;;;;5059980;28;20025;-69
2023/12/10 05:01:42;;;;;;;28.80;12.38;;;;;;;;;;5061931;28;20062;-71
2023/12/10 05:04:08;;;;;;;27.08;11.82;;;;;;;;;;5044567;28;20049;-64
2023/12/10 05:06:33;;;;;;;27.75;12.27;;;;;;;;;;5050931;28;20131;-67
2023/12/10 05:08:58;;;;;;;28.30;12.82;;;;;;;;;;5061760;28;20025;-67
2023/12/10 05:11:24;;;;;;;27.47;12.33;;;;;;;;;;5060286;28;20481;-66
2023/12/10 05:13:49;;;;;;;28.35;14.00;;;;;;;;;;5058681;28;20270;-67
2023/12/10 05:16:14;;;;;;;31.58;14.18;;;;;;;;;;5058324;28;20035;-67
2023/12/10 05:18:40;;;;;;;31.88;14.60;;;;;;;;;;5061186;28;20024;-67
2023/12/10 05:21:05;;;;;;;33.97;14.85;;;;;;;;;;5059038;28;20017;-68
2023/12/10 05:23:30;;;;;;;34.72;15.20;;;;;;;;;;5043724;28;20028;-67
2023/12/10 05:25:56;;;;;;;32.72;15.48;;;;;;;;;;5058828;28;20489;-66
2023/12/10 05:28:21;;;;;;;34.43;16.00;;;;;;;;;;5059959;28;20035;-66
2023/12/10 05:30:46;;;;;;;37.88;17.30;;;;;;;;;;5061705;28;20273;-67
2023/12/10 05:33:12;;;;;;;39.00;16.00;;;;;;;;;;5063064;28;20094;-65
2023/12/10 05:35:37;;;;;;;37.13;16.35;;;;;;;;;;5060936;28;20020;-67
2023/12/10 05:38:03;;;;;;;38.22;16.63;;;;;;;;;;5049843;28;20025;-67
2023/12/10 05:40:29;;;;;;;36.67;17.17;;;;;;;;;;5059388;28;20041;-67
2023/12/10 05:42:54;;;;;;;34.47;16.45;;;;;;;;;;5057628;28;20501;-66
2023/12/10 05:45:20;;;;;;;37.05;17.05;;;;;;;;;;5040938;28;20085;-67
2023/12/10 05:47:45;;;;;;;36.95;15.98;;;;;;;;;;5057768;28;20027;-67
2023/12/10 05:50:10;;;;;;;36.58;15.63;;;;;;;;;;5062604;28;20031;-67
2023/12/10 05:52:36;;;;;;;36.75;16.80;;;;;;;;;;5061011;28;20052;-67
2023/12/10 05:55:01;;;;;;;41.80;16.65;;;;;;;;;;5056192;28;20195;-67
2023/12/10 05:57:27;;;;;;;42.15;16.42;;;;;;;;;;5059152;28;20056;-67
2023/12/10 05:59:52;;;;;;;39.95;16.45;;;;;;;;;;5042805;28;20021;-68
2023/12/10 06:02:18;;;;;;;35.92;15.60;;;;;;;;;;5058907;28;20099;-67
2023/12/10 06:04:43;;;;;;;33.67;14.93;;;;;;;;;;5057532;28;20032;-67
2023/12/10 06:07:08;;;;;;;37.30;15.45;;;;;;;;;;5057864;28;20025;-67
2023/12/10 06:09:34;;;;;;;38.72;16.10;;;;;;;;;;5057496;28;20035;-68
2023/12/10 06:11:59;;;;;;;34.63;15.02;;;;;;;;;;5058166;28;20017;-66
2023/12/10 06:14:24;;;;;;;33.33;14.80;;;;;;;;;;5056744;28;20024;-67
2023/12/10 06:16:50;;;;;;;36.10;14.70;;;;;;;;;;5059751;28;20415;-71
2023/12/10 06:19:15;;;;;;;35.40;15.17;;;;;;;;;;5059021;28;20061;-70
2023/12/10 06:21:40;;;;;;;38.65;15.65;;;;;;;;;;5057492;28;20929;-70
2023/12/10 06:24:06;;;;;;;38.80;15.65;;;;;;;;;;5041549;28;20028;-70
2023/12/10 06:26:31;;;;;;;36.33;14.30;;;;;;;;;;5047617;28;20083;-72
2023/12/10 06:28:56;;;;;;;33.65;15.02;;;;;;;;;;5057975;28;20016;-71
2023/12/10 06:31:22;;;;;;;32.47;14.95;;;;;;;;;;5061301;28;20107;-64
2023/12/10 06:33:47;;;;;;;35.15;15.55;;;;;;;;;;5043636;28;20037;-63
2023/12/10 06:36:13;;;;;;;34.95;15.98;;;;;;;;;;5055916;28;20016;-65
2023/12/10 06:38:38;;;;;;;35.00;15.57;;;;;;;;;;5058808;28;20751;-66
2023/12/10 06:41:03;;;;;;;36.92;16.25;;;;;;;;;;5060552;28;20119;-63
2023/12/10 06:43:29;;;;;;;37.85;15.77;;;;;;;;;;5061602;28;20376;-64
2023/12/10 06:45:57;;;;;;;39.33;15.73;;;;;;;;;;5059490;28;20028;-67
2023/12/10 06:48:23;;;;;;;37.07;16.33;;;;;;;;;;5063775;28;20030;-66
2023/12/10 06:50:48;;;;;;;37.77;16.07;;;;;;;;;;5056592;28;20036;-68
2023/12/10 06:53:13;;;;;;;42.28;16.73;;;;;;;;;;5063050;28;21038;-70
2023/12/10 06:55:39;;;;;;;42.27;16.97;;;;;;;;;;5060426;28;20123;-73
2023/12/10 06:58:04;;;;;;;45.75;18.67;;;;;;;;;;5060341;28;20284;-73
2023/12/10 07:00:30;;;;;;;43.75;17.33;;;;;;;;;;5058149;28;20020;-70
2023/12/10 07:02:56;;;;;;;40.28;17.65;;;;;;;;;;5059989;28;20028;-72
2023/12/10 07:05:21;;;;;;;44.40;17.92;;;;;;;;;;5056599;28;20034;-72
2023/12/10 07:07:47;;;;;;;42.25;17.40;;;;;;;-0.08;nan;100287.75;5077071;28;20016;-72
2023/12/10 07:10:12;;;;;;;41.28;17.85;;;;;;;;;;5055622;28;20052;-71
2023/12/10 07:12:37;;;;;;;41.53;17.13;;;;;;;;;;5073142;28;20044;-71
2023/12/10 07:15:03;;;;;;;47.35;17.58;;;;;;;;;;5065191;28;20025;-67
2023/12/10 07:17:28;;;;;;;42.50;18.30;;;;;;;;;;5064844;28;20436;-67
2023/12/10 07:19:56;;;;;;;40.40;18.50;;;;;;;;;;5060870;28;20537;-67
2023/12/10 07:22:22;;;;;;;41.38;18.38;;;;;;;;;;5040297;28;20020;-67
2023/12/10 07:24:47;;;;;;;43.25;17.75;;;;;;;;;;5048160;28;20504;-70
2023/12/10 07:27:12;;;;;;;41.57;17.50;;;;;;;;;;5061362;28;20033;-67
2023/12/10 07:29:38;;;;;;;40.72;17.42;;;;;;;;;;5058382;28;20292;-67
2023/12/10 07:32:03;;;;;;;42.67;17.52;;;;;;;;;;5059715;28;20029;-67
2023/12/10 07:34:28;;;;;;;37.85;16.17;;;;;;;;;;5056303;28;20037;-72
2023/12/10 07:36:54;;;;;;;37.90;16.45;;;;;;;;;;5058888;28;20062;-72
2023/12/10 07:39:19;;;;;;;38.90;16.23;;;;;;;;;;5057473;28;20025;-66
2023/12/10 07:41:44;;;;;;;42.55;16.85;;;;;;;;;;5043540;28;20032;-67
2023/12/10 07:44:10;;;;;;;37.80;15.75;;;;;;;;;;5054785;28;20028;-67
2023/12/10 07:46:35;;;;;;;40.67;15.80;;;;;;;;;;5060106;28;20029;-67
2023/12/10 07:49:00;;;;;;;36.80;15.88;;;;;;;;;;5058182;28;20021;-70
2023/12/10 07:51:26;;;;;;;36.42;15.13;;;;;;;;;;5060953;28;20118;-71
2023/12/10 07:53:52;;;;;;;37.33;16.48;;;;;;;;;;5062608;28;20071;-72
2023/12/10 07:56:17;;;;;;;33.73;14.47;;;;;;;;;;5055171;28;20071;-72
2023/12/10 07:58:42;;;;;;;36.03;15.10;;;;;;;;;;5063342;28;20297;-72
2023/12/10 08:01:09;;;;;;;34.67;15.00;;;;;;;;;;5063003;28;20035;-70
2023/12/10 08:03:34;;;;;;;31.15;14.63;;;;;;;;;;5061921;28;20043;-71
2023/12/10 08:06:00;;;;;;;33.95;15.15;;;;;;;;;;5052595;28;20036;-71
2023/12/10 08:08:25;;;;;;;32.40;14.82;;;;;;;;;;5063260;28;20082;-74
2023/12/10 08:10:51;;;;;;;31.60;14.68;;;;;;;;;;5062822;28;20116;-72
2023/12/10 08:13:16;;;;;;;34.13;15.70;;;;;;;1.23;nan;100298.09;5059061;28;20796;-74
2023/12/10 08:15:42;;;;;;;32.10;14.85;;;;;;;1.22;nan;100290.47;5062310;28;20385;-73
2023/12/10 08:18:07;;;;;;;28.63;13.55;;;;;;;1.39;nan;100309.41;5060378;28;20025;-74
2023/12/10 08:20:33;;;;;;;33.15;14.07;;;;;;;1.50;nan;100309.03;5062294;28;20025;-71
2023/12/10 08:22:59;;;;;;;28.00;12.45;;;;;;;1.52;nan;100319.28;5061449;28;20025;-70
2023/12/10 08:25:24;;;;;;;31.42;14.20;;;;;;;1.53;nan;100307.91;5062294;28;20046;-70
2023/12/10 08:27:50;;;;;;;29.48;13.82;;;;;;;1.63;nan;100319.72;5057380;28;20047;-71
2023/12/10 08:30:16;;;;;;;30.45;13.02;;;;;;;1.68;nan;100324.41;5061953;28;20025;-71
2023/12/10 08:32:41;;;;;;;28.42;13.35;;;;;;;1.69;nan;100331.19;5063667;28;20037;-71
2023/12/10 08:35:07;;;;;;;30.33;14.75;;;;;;;1.73;nan;100335.09;5050899;28;20017;-71
2023/12/10 08:37:33;;;;;;;29.73;13.38;;;;;;;1.77;nan;100346.72;5060485;28;20105;-71
2023/12/10 08:40:01;;;;;;;29.45;12.80;;;;;;;1.51;nan;100302.91;5061368;28;20028;-70
2023/12/10 08:42:27;;;;;;;32.17;14.10;;;;;;;1.64;nan;100326.50;5061823;28;20104;-72
2023/12/10 08:44:53;;;;;;;32.05;15.70;;;;;;;1.73;nan;100342.88;5061274;28;20036;-71
2023/12/10 08:47:18;;;;;;;27.40;13.35;;;;;;;1.80;nan;100343.81;5062241;28;20081;-70
2023/12/10 08:49:44;;;;;;;27.73;14.43;;;;;;;1.82;nan;100336.69;5062420;28;20024;-70
2023/12/10 08:52:09;;;;;;;29.00;14.27;;;;;;;1.77;nan;100331.16;5060951;28;20049;-70
2023/12/10 08:54:35;;;;;;;23.95;12.30;;;;;;;1.84;nan;100347.69;5060676;28;20111;-69
2023/12/10 08:57:00;;;;;;;25.50;13.02;;;;;;;1.89;nan;100348.00;5060649;28;20028;-69
2023/12/10 08:59:26;;;;;;;25.48;12.05;;;;;;;1.80;nan;100330.84;5056394;28;20021;-70
2023/12/10 09:01:51;;;;;;;24.77;12.77;;;;;;;1.88;nan;100341.16;5060802;28;20087;-71
2023/12/10 09:04:17;;;;;;;26.55;12.20;;;;;;;1.90;nan;100344.41;5040603;28;20078;-71
2023/12/10 09:06:42;;;;;;;28.05;13.32;;;;;;;1.98;nan;100359.13;5060491;28;20071;-70
2023/12/10 09:09:08;;;;;;;28.08;12.65;;;;;;;1.95;nan;100351.69;5064925;28;20040;-72
2023/12/10 09:11:33;;;;;;;26.80;13.25;;;;;;;2.08;nan;100359.75;5062246;28;20040;-75
2023/12/10 09:13:59;;;;;;;28.38;13.80;;;;;;;2.01;nan;100360.59;5062649;28;20095;-74
2023/12/10 09:16:25;;;;;;;27.33;12.90;;;;;;;2.07;nan;100360.72;5064293;28;20554;-72
2023/12/10 09:18:51;;;;;;;28.50;14.43;;;;;;;2.07;nan;100357.31;5059637;28;20119;-74
2023/12/10 09:21:16;;;;;;;27.88;12.27;;;;;;;2.17;nan;100373.50;5063585;28;20112;-74
2023/12/10 09:23:43;;;;;;;24.27;12.35;;;;;;;2.20;nan;100370.56;5062980;28;20032;-73
2023/12/10 09:26:10;;;;;;;33.00;14.65;;;;;;;2.20;nan;100377.53;5065194;28;20021;-74
2023/12/10 09:28:36;;;;;;;33.45;14.38;;;;;;;2.16;nan;100366.69;5061409;28;20027;-73
2023/12/10 09:31:01;;;;;;;33.03;14.25;;;;;;;2.14;nan;100373.84;5053174;28;20383;-74
2023/12/10 09:33:27;;;;;;;29.98;12.32;;;;;;;2.24;nan;100371.03;5065176;28;20028;-74
2023/12/10 09:35:52;;;;;;;27.60;12.50;;;;;;;2.26;nan;100382.88;5058526;28;20021;-74
2023/12/10 09:38:17;;;;;;;35.28;14.80;;;;;;;2.31;nan;100390.97;5057943;28;20036;-73
2023/12/10 09:40:43;;;;;;;40.35;17.73;;;;;;;2.27;nan;100381.88;5060399;28;20710;-73
2023/12/10 09:43:08;;;;;;;42.85;20.15;;;;;;;2.30;nan;100384.16;5058041;28;20020;-73
2023/12/10 09:45:34;;;;;;;32.33;14.63;;;;;;;2.28;nan;100374.91;5060207;28;20068;-74
2023/12/10 09:48:01;;;;;;;35.55;16.77;;;;;;;2.35;nan;100386.25;5059175;28;20019;-74
2023/12/10 09:50:27;;;;;;;36.20;15.88;;;;;;;2.26;nan;100367.28;5063039;28;20035;-73
2023/12/10 09:52:54;;;;;;;30.10;13.68;;;;;;;2.32;nan;100378.78;5059764;28;20810;-72
2023/12/10 09:55:20;;;;;;;29.65;13.93;;;;;;;2.33;nan;100375.22;5041789;28;20754;-73
2023/12/10 09:57:46;;;;;;;30.33;12.95;;;;;;;2.30;nan;100375.56;5060887;28;20036;-73
2023/12/10 10:00:12;;;;;;;27.08;13.40;;;;;;;2.25;nan;100372.63;5061003;28;20033;-73
2023/12/10 10:02:38;;;;;;;29.73;14.40;;;;;;;2.34;nan;100377.63;5058375;28;20163;-72
2023/12/10 10:05:07;;;;;;;30.92;13.18;;;;;;;2.24;nan;100368.44;5059024;28;20032;-74
2023/12/10 10:07:33;;;;;;;28.45;13.40;;;;;;;2.21;nan;100358.41;5042326;28;20036;-73
2023/12/10 10:09:59;;;;;;;31.55;14.57;;;;;;;2.34;nan;100372.41;5061405;28;20028;-71
2023/12/10 10:12:29;;;;;;;31.27;15.13;;;;;;;2.30;nan;100365.16;5063483;28;20604;-70
2023/12/10 10:14:56;;;;;;;31.05;15.23;;;;;;;2.25;nan;100357.06;5059368;28;20111;-73
2023/12/10 10:17:29;;;;;;;33.15;15.13;;;;;;;2.34;nan;100361.22;5061420;28;20052;-69
2023/12/10 10:19:55;;;;;;;35.42;16.08;;;;;;;2.45;nan;100368.63;5059262;28;20071;-71
2023/12/10 10:22:25;;;;;;;32.10;14.35;;;;;;;2.47;nan;100373.66;5057921;28;20040;-70
2023/12/10 10:24:56;;;;;;;32.70;14.93;;;;;;;2.45;nan;100368.63;5059886;28;20499;-70
2023/12/10 10:27:22;;;;;;;31.40;13.98;;;;;;;2.37;nan;100349.69;5062004;28;20032;-69
2023/12/10 10:29:53;;;;;;;27.55;13.63;;;;;;;2.39;nan;100352.91;5050449;28;20029;-69
2023/12/10 10:32:19;;;;;;;26.40;12.20;;;;;;;2.44;nan;100358.41;5062190;28;20082;-69
2023/12/10 10:34:46;;;;;;;28.85;12.32;;;;;;;2.43;nan;100354.19;5044331;28;20632;-70
2023/12/10 10:37:13;;;;;;;34.33;15.55;;;;;;;2.36;nan;100335.88;5073873;28;20079;-69
2023/12/10 10:39:38;;;;;;;27.33;12.73;;;;;;;2.37;nan;100342.72;5079482;28;20017;-69
2023/12/10 10:42:08;;;;;;;26.50;13.43;;;;;;;2.37;nan;100332.31;5078152;28;20093;-69
2023/12/10 10:44:38;;;;;;;28.10;12.35;;;;;;;2.43;nan;100339.41;5082689;28;20020;-69
2023/12/10 10:47:07;;;;;;;29.95;13.73;;;;;;;2.50;nan;100349.94;5078695;28;20027;-69
2023/12/10 10:49:35;;;;;;;31.48;13.38;;;;;;;2.47;nan;100335.50;5068339;28;20024;-69
2023/12/10 10:52:04;;;;;;;31.60;15.40;;;;;;;2.52;nan;100347.97;5062143;28;20048;-69
2023/12/10 10:54:31;;;;;;;32.83;14.50;;;;;;;2.53;nan;100342.56;5079134;28;20051;-69
2023/12/10 10:56:57;;;;;;;29.90;14.68;;;;;;;2.49;nan;100346.53;5080318;28;20309;-69
2023/12/10 10:59:33;;;;;;;33.35;15.27;;;;;;;2.30;nan;100302.81;5056753;28;20025;-69
2023/12/10 11:02:00;;;;;;;38.22;18.52;;;;;;;2.58;nan;100342.06;5080482;28;20025;-70
2023/12/10 11:04:38;;;;;;;37.47;21.05;;;;;;;2.55;nan;100338.00;5064716;28;20896;-71
2023/12/10 11:07:05;;;;;;;35.58;19.48;;;;;;;2.57;nan;100335.25;5063731;28;20099;-70
2023/12/10 11:09:31;;;;;;;32.33;16.58;;;;;;;2.49;nan;100314.50;5059708;28;20039;-70
2023/12/10 11:11:58;;;;;;;36.60;18.75;;;;;;;2.59;nan;100338.50;5049812;28;20526;-69
2023/12/10 11:14:24;;;;;;;29.63;14.75;;;;;;;2.62;nan;100343.34;5042802;28;20059;-69
2023/12/10 11:17:04;;;;;;;35.80;18.05;;;;;;;2.63;nan;100344.94;5043159;28;20024;-69
2023/12/10 11:19:32;;;;;;;31.75;14.13;;;;;;;2.63;nan;100339.75;5058764;28;20083;-68
2023/12/10 11:21:59;;;;;;;27.27;13.55;;;;;;;2.69;nan;100339.06;5045594;28;20016;-69
2023/12/10 11:24:24;;;;;;;30.80;14.02;;;;;;;2.59;nan;100319.50;5037913;28;20078;-68
2023/12/10 11:26:50;;;;;;;33.65;15.10;;;;;;;2.65;nan;100313.59;5055695;28;20470;-67
2023/12/10 11:29:16;;;;;;;31.35;14.52;;;;;;;2.61;nan;100304.50;5048564;28;20101;-68
2023/12/10 11:31:45;;;;;;;30.80;13.60;;;;;;;2.77;nan;100325.97;5042361;28;20494;-68
2023/12/10 11:34:11;;;;;;;31.50;13.93;;;;;;;2.74;nan;100317.72;5055988;28;20060;-65
2023/12/10 11:36:36;;;;;;;25.70;12.52;;;;;;;2.71;nan;100324.09;5057883;28;20029;-67
2023/12/10 11:39:02;;;;;;;27.73;12.60;;;;;;;2.95;nan;100348.28;5060868;28;20367;-68
2023/12/10 11:41:28;;;;;;;29.35;13.43;;;;;;;2.81;nan;100323.84;5057141;28;20359;-67
2023/12/10 11:43:54;;;;;;;27.52;12.48;;;;;;;2.75;nan;100314.13;5057694;28;20082;-67
2023/12/10 11:46:21;;;;;;;27.73;12.80;;;;;;;2.85;nan;100319.09;5058200;28;20032;-67
2023/12/10 11:48:47;;;;;;;26.63;12.68;;;;;;;2.83;nan;100310.69;5060471;28;20701;-68
2023/12/10 11:51:12;;;;;;;29.50;12.85;;;;;;;2.77;nan;100296.56;5045658;28;20441;-68
2023/12/10 11:53:38;;;;;;;30.73;13.88;;;;;;;2.78;nan;100298.22;5061572;28;20693;-69
2023/12/10 11:56:04;;;;;;;28.73;13.02;;;;;;;2.82;nan;100303.84;5060704;28;20036;-68
2023/12/10 11:58:32;;;;;;;33.22;13.50;;;;;;;2.82;nan;100306.44;5063547;28;20581;-69
2023/12/10 12:01:01;;;;;;;30.08;13.35;;;;;;;2.85;nan;100309.53;5059176;28;20027;-69
2023/12/10 12:03:29;;;;;;;30.10;12.95;;;;;;;2.93;nan;100322.44;5059722;28;20026;-69
2023/12/10 12:05:54;;;;;;;32.15;13.52;;;;;;;2.94;nan;100318.84;5058633;28;20521;-68
2023/12/10 12:08:23;;;;;;;30.25;13.82;;;;;;;2.84;nan;100307.88;5062012;28;20050;-67
2023/12/10 12:10:50;;;;;;;27.42;12.93;;;;;;;2.89;nan;100320.38;5057173;28;20478;-66
2023/12/10 12:13:17;;;;;;;32.22;13.68;;;;;;;2.86;nan;100313.72;5059985;28;20041;-66
2023/12/10 12:15:50;;;;;;;31.83;13.82;;;;;;;3.03;nan;100337.00;5061147;28;20031;-67
2023/12/10 12:18:16;;;;;;;35.17;14.40;;;;;;;3.03;nan;100339.59;5060310;28;20425;-67
2023/12/10 12:20:42;;;;;;;31.35;14.38;;;;;;;3.10;nan;100340.50;5060093;28;20025;-68
2023/12/10 12:23:08;;;;;;;32.42;15.45;;;;;;;3.13;nan;100340.94;5059957;28;20144;-68
2023/12/10 12:25:38;;;;;;;34.38;15.02;;;;;;;3.10;nan;100343.91;5051574;28;20528;-68
2023/12/10 12:28:07;;;;;;;31.23;14.68;;;;;;;3.14;nan;100352.97;5061357;28;20048;-68
2023/12/10 12:30:36;;;;;;;29.83;14.30;;;;;;;3.13;nan;100356.53;5044158;28;20036;-69
2023/12/10 12:33:06;;;;;;;34.53;15.18;;;;;;;3.19;nan;100355.84;5062061;28;20025;-68
2023/12/10 12:35:32;;;;;;;30.58;14.23;;;;;;;3.17;nan;100350.00;5051565;28;20440;-68
2023/12/10 12:37:57;;;;;;;34.20;14.25;;;;;;;3.16;nan;100338.00;5063540;28;20056;-67
2023/12/10 12:40:23;;;;;;;27.05;12.27;;;;;;;3.27;nan;100352.34;5062156;28;20032;-70
2023/12/10 12:42:49;;;;;;;34.92;14.90;;;;;;;3.28;nan;100346.19;5051742;28;20030;-70
2023/12/10 12:45:19;;;;;;;34.25;14.75;;;;;;;3.30;nan;100344.19;5051831;28;20041;-71
2023/12/10 12:47:46;;;;;;;32.33;14.95;;;;;;;3.10;nan;100309.28;5049898;28;20040;-71
2023/12/10 12:50:11;;;;;;;29.63;12.95;;;;;;;3.32;nan;100351.81;5064721;28;20168;-71
2023/12/10 12:52:57;;;;;;;31.63;13.13;;;;;;;3.25;nan;100335.31;5046310;28;20139;-70
2023/12/10 12:55:23;;;;;;;27.85;13.50;;;;;;;3.31;nan;100355.44;5063304;28;20029;-75
2023/12/10 12:57:48;;;;;;;29.55;13.27;;;;;;;3.32;nan;100352.63;5061818;28;20081;-73
2023/12/10 13:00:16;;;;;;;29.75;13.73;;;;;;;3.16;nan;100324.16;5053510;28;20037;-72
2023/12/10 13:02:42;;;;;;;33.53;14.35;;;;;;;3.17;nan;100328.41;5061156;28;20074;-73
2023/12/10 13:05:08;;;;;;;32.60;14.50;;;;;;;3.28;nan;100345.34;5061630;28;20028;-69